ADDS METAR Data INFO
IDs: Format: Raw Decoded Include TAF

Data at: 0946 UTC 25 Jun 2018

KGLD 250853Z AUTO 31011KT 10SM CLR 12/11 A3001 RMK AO2 SLP130 T01220111 50002 $
KGLD 250753Z AUTO 31008KT 10SM CLR 12/11 A3001 RMK AO2 SLP133 T01220111 $
KGLD 250653Z AUTO 26005KT 10SM CLR 12/11 A3000 RMK AO2 SLP132 T01170106 402390111 $
KGLD 250553Z AUTO 33003KT 10SM CLR 12/11 A3000 RMK AO2 SLP130 60009 T01170111 10139 20117 58011 $
KGLD 250453Z AUTO 33006KT 10SM CLR 12/11 A3001 RMK AO2 PRESFR SLP136 T01170111 $
KGLD 250353Z AUTO 32007KT 10SM CLR 13/12 A3006 RMK AO2 RAB0255E06 SLP153 P0000 T01280117 $
KGLD 250253Z AUTO 09004KT 10SM CLR 13/12 A3004 RMK AO2 PK WND 06028/0158 RAE0158 PRESRR SLP145 P0000 60009 T01330117 51003 PWINO $
KGLD 250153Z AUTO 05016G31KT 10SM -RA FEW050 BKN095 OVC110 13/11 A3001 RMK AO2 PK WND 07031/0146 SLP139 P0008 T01330111 $
KGLD 250053Z AUTO 33013G23KT 6SM RA BR OVC065 13/12 A3010 RMK AO2 PK WND 34031/0009 WSHFT 0027 LTG DSNT SE AND S RAB49 TSE2354 SLP171 P0001 T01330117 $
KGLD 250008Z AUTO 34021G28KT 10SM OVC095 14/12 A3003 RMK AO2 PK WND 32028/0006 LTG DSNT NE-SE TSE2354 T01390117 PWINO $
KGLD 250000Z AUTO 32016G23KT 10SM VCTS FEW060 FEW075 OVC100 13/12 A3004 RMK AO2 LTG DSNT E-S TSE2354 PRESRR T01330117 PWINO $
KGLD 242353Z AUTO 34016G30KT 9SM TS SCT055 BKN085 OVC110 13/12 A3002 RMK AO2 PK WND 33038/2313 LTG DSNT ALQDS SLP145 P0069 60109 T01330117 10239 20128 53022 PWINO $
KGLD 242330Z AUTO 36027G38KT 3SM TS BR FEW007 OVC038 13/12 A3002 RMK AO2 PK WND 33038/2313 LTG DSNT ALQDS P0067 T01280122 PWINO $
KGLD 242322Z AUTO 36023G38KT 2SM TS BR FEW008 SCT013 OVC023 13/13 A3004 RMK AO2 PK WND 33038/2313 LTG DSNT ALQDS P0060 T01330128 PWINO $
KGLD 242317Z AUTO 35024G38KT 1 1/4SM TS BR SCT008 OVC013 13/13 A3006 RMK AO2 PK WND 33038/2313 LTG DSNT ALQDS P0053 T01330133 PWINO $
KGLD 242311Z AUTO 33023G37KT 3/4SM TS BR BKN008 BKN013 OVC038 14/13 A3007 RMK AO2 PK WND 36037/2307 LTG DSNT ALQDS PRESRR P0041 T01390133 PWINO $
KGLD 242258Z AUTO 35019G32KT 1 3/4SM TS BR FEW007 BKN010 OVC040 15/14 A2999 RMK AO2 PK WND 36026/2254 LTG DSNT ALQDS PRESRR P0005 T01500139 PWINO $
KGLD 242253Z AUTO 35021G32KT 2SM TS BR FEW008 BKN027 OVC040 16/15 A2999 RMK AO2 PK WND 35032/2250 LTG DSNT ALQDS RAB33RAEMM TSB27 SLP128 P0040 T01610150 PWINO $
KGLD 242246Z AUTO 01013G20KT 1/2SM TS FG SCT010 OVC040 17/16 A2996 RMK AO2 LTG DSNT ALQDS RAB33RAEMM TSB27 P0039 T01670161 PWINO $
KGLD 242238Z AUTO 34016G20KT 1 1/2SM TS BR FEW016 BKN040 19/17 A2996 RMK AO2 LTG DSNT ALQDS RAB33RAEMM TSB27 P0004 T01890167 PWINO $
KGLD 242227Z AUTO 05009KT 10SM TS BKN040 BKN085 OVC100 21/16 A2994 RMK AO2 LTG DSNT W-N TSB27 T02060161
KGLD 242153Z AUTO 08008KT 10SM BKN039 OVC050 23/16 A2994 RMK AO2 LTG DSNT W AND NW SLP102 T02280161
KGLD 242053Z AUTO VRB04KT 10SM CLR 23/16 A2995 RMK AO2 SLP107 T02330161 58012
KGLD 241953Z AUTO 01004KT 10SM SCT030 OVC037 22/16 A2997 RMK AO2 SLP116 T02170156
KGLD 241853Z AUTO 00000KT 10SM SCT024 BKN037 OVC044 22/16 A2998 RMK AO2 SLP119 T02170156
KGLD 241841Z AUTO 35005KT 10SM BKN024 BKN040 22/16 A2998 RMK AO2 LTG DSNT NW T02220161
KGLD 241753Z AUTO 00000KT 10SM FEW022 SCT029 OVC080 21/16 A2999 RMK AO2 LTG DSNT N RAB02RAEMMB13E30 SLP123 P0000 60002 T02110156 10211 20150 53013 $
KGLD 241722Z AUTO 00000KT 10SM -RA FEW022 SCT027 20/16 A2999 RMK AO2 RAB02RAEMMB13 P0000 T02000156 $
KGLD 241708Z AUTO 27005KT 10SM BKN022 20/15 A2998 RMK AO2 LTG DSNT NE AND NW RAB02RAEMM P0000 T02000150 PWINO $
KGLD 241653Z AUTO 36004KT 10SM SCT020 19/16 A2998 RMK AO2 LTG DSNT NW-NE RAE03 SLP120 P0000 T01940156 PWINO $
KGLD 241553Z AUTO 20003KT 7SM -RA FEW036 SCT050 BKN090 18/14 A2996 RMK AO2 RAB48 SLP115 P0001 T01780144
KGLD 241453Z AUTO 00000KT 10SM BKN080 BKN095 17/15 A2995 RMK AO2 SLP111 60001 T01720150 50009
KGLD 241444Z AUTO 00000KT 10SM BKN080 OVC095 17/14 A2995 RMK AO2 T01720144
KGLD 241423Z AUTO 32004KT 10SM VCTS BKN080 OVC095 17/15 A2996 RMK AO2 T01670150 $
KGLD 241353Z AUTO 34006KT 10SM OVC075 16/15 A2996 RMK AO2 LTG DSNT E RAB07E29 TSE26 SLP117 P0001 T01560150 $
KGLD 241340Z AUTO 35006KT 10SM OVC080 16/15 A2995 RMK AO2 LTG DSNT E RAB07E29 TSE26 P0001 T01560150 $
KGLD 241332Z AUTO 36004KT 10SM VCTS FEW047 OVC080 16/15 A2996 RMK AO2 LTG DSNT E RAB07E29 TSE26 P0001 T01560150 $
KGLD 241253Z AUTO 00000KT 10SM TS OVC080 16/14 A2994 RMK AO2 RAE09 TSB53 SLP106 P0000 T01560144 $
KGLD 241244Z AUTO 03003KT 10SM VCTS OVC085 15/14 A2993 RMK AO2 LTG DSNT W RAE09 P0000 T01500144 $
KGLD 241153Z AUTO 11007KT 10SM -RA FEW043 SCT070 OVC100 15/14 A2992 RMK AO2 RAB02 TSB22E37 SLP100 P0013 60037 70081 T01500139 10161 20150 50019 $
KGLD 241143Z AUTO 13006KT 6SM RA BR FEW070 SCT090 OVC100 15/14 A2992 RMK AO2 RAB02 TSB22E37 P0011 T01500144 $
KGLD 241128Z AUTO 15006KT 5SM +TSRA BR SCT070 BKN090 OVC110 15/14 A2993 RMK AO2 LTG DSNT W RAB02 TSB22 P0007 T01500144 $
KGLD 241104Z AUTO 15009KT 10SM VCTS -RA BKN075 OVC095 16/14 A2993 RMK AO2 LTG DSNT S-W RAB02 P0000 T01560144 $
KGLD 241053Z AUTO 14009KT 10SM SCT075 OVC095 16/14 A2994 RMK AO2 LTG DSNT ALQDS RAE51 TSE20 SLP106 P0002 T01560139 $
KGLD 241044Z AUTO 13011KT 10SM -RA BKN100 BKN110 16/14 A2993 RMK AO2 LTG DSNT ALQDS TSE20 PRESRR P0002 T01560144 $
KGLD 241026Z AUTO 08013KT 10SM VCTS -RA BKN100 16/14 A2990 RMK AO2 LTG DSNT ALQDS TSE20 P0002 T01560144 $
KGLD 240953Z AUTO 05009KT 9SM -TSRA SCT070 OVC090 16/14 A2991 RMK AO2 PK WND 33035/0914 LTG DSNT ALQDS RAB21 TSB16 SLP095 P0021 T01560139 $
KGLD 240922Z AUTO 34017G35KT 4SM +TSRA BR SCT040 BKN065 OVC100 15/14 A2992 RMK AO2 PK WND 33035/0914 LTG DSNT ALQDS RAB21 TSB16 P0006 T01500144 $
KGLD 240853Z AUTO 05005KT 10SM VCTS BKN100 16/14 A2985 RMK AO2 LTG DSNT W-NE RAB13RAEMMB28RAEMM PRESRR SLP071 P0001 60001 T01560139 53010 PWINO $
KGLD 240827Z AUTO 00000KT 10SM VCTS BKN090 OVC110 16/14 A2981 RMK AO2 LTG DSNT ALQDS RAB13RAEMM P0000 T01560139 $
KGLD 240808Z AUTO 12006KT 10SM BKN090 OVC110 16/14 A2981 RMK AO2 LTG DSNT SE AND S AND NW T01560139 $
KGLD 240753Z AUTO 06006KT 10SM VCTS SCT090 BKN110 16/14 A2981 RMK AO2 LTG DSNT ALQDS RAB34E43 TSB17E32 SLP051 P0000 T01560139 $
KGLD 240738Z AUTO 09004KT 10SM VCTS -RA SCT085 15/14 A2983 RMK AO2 LTG DSNT ALQDS RAB34 TSB17E32 P0000 T01500139 $
KGLD 240723Z AUTO 07004KT 10SM TS CLR 15/14 A2984 RMK AO2 LTG DSNT S AND SW TSB17 PRESFR T01500139 $
KGLD 240653Z AUTO 02016G20KT 10SM VCTS CLR 15/13 A2984 RMK AO2 LTG DSNT S AND SW SLP061 T01500133 403000111 $
KGLD 240553Z AUTO 17008KT 10SM CLR 15/13 A2982 RMK AO2 SLP055 60000 T01500133 10211 20144 51003 $
KGLD 240453Z AUTO 13003KT 10SM CLR 16/13 A2981 RMK AO2 RAB26E46 SLP055 P0000 T01560133 $
KGLD 240353Z AUTO 16007KT 10SM CLR 16/13 A2982 RMK AO2 LTG DSNT S SLP059 T01560133 $
KGLD 240253Z AUTO 13009KT 10SM CLR 17/13 A2981 RMK AO2 RAB42E52 SLP055 P0000 60000 T01670133 53008 $
KGLD 240153Z AUTO 14007KT 10SM CLR 19/17 A2981 RMK AO2 RAB0056E12 SLP059 P0000 T01890167 $
KGLD 240053Z AUTO 17007KT 10SM CLR 19/16 A2977 RMK AO2 LTG DSNT SE RAB27RAEMM SLP052 P0000 T01940161 PWINO $
KGLD 232353Z AUTO 17010KT 10SM CLR 19/14 A2978 RMK AO2 PK WND 17035/2257 WSHFT 2240 LTG DSNT E-SW RAB06E20B36E50 TSE06 SLP057 P0001 60044 T01940144 10300 20189 58015 $
KGLD 232341Z AUTO 17014KT 10SM -RA CLR 19/14 A2978 RMK AO2 PK WND 17035/2257 WSHFT 2240 LTG DSNT E-SW RAB06E20B36 TSE06 PRESFR P0001 T01940144 $
KGLD 232312Z AUTO 17016G31KT 10SM VCTS -RA FEW040 SCT090 BKN110 20/14 A2981 RMK AO2 PK WND 17035/2257 WSHFT 2240 LTG DSNT SE-W RAB06 TSE06 P0001 T02000139 $
KGLD 232300Z AUTO 17024G35KT 8SM TS FEW035 BKN075 OVC110 21/12 A2978 RMK AO2 PK WND 17035/2257 WSHFT 2240 LTG DSNT SE-SW T02110117 PWINO $
KGLD 232253Z AUTO 19021KT 9SM TS FEW035 BKN070 OVC090 20/14 A2981 RMK AO2 WSHFT 2232 LTG DSNT SE-W RAEMM PRESFR SLP065 P0039 T02000144 PWINO $
KGLD 232245Z AUTO 18015KT 3SM TS HZ FEW035 BKN049 OVC095 20/16 A2985 RMK AO2 LTG DSNT ALQDS RAEMM P0039 T02000161 PWINO $
KGLD 232234Z AUTO 27017KT 1 3/4SM TS BR SCT049 BKN060 OVC070 19/17 A2987 RMK AO2 LTG DSNT ALQDS RAEMM P0027 T01940172 PWINO $
KGLD 232210Z AUTO 3SM TS HZ FEW049 BKN075 OVC100 21/18 A2985 RMK AO2 LTG DSNT ALQDS RAEMM P0013 T02060178 PWINO $
KGLD 232204Z AUTO 33003KT 1 3/4SM TS HZ SCT049 BKN065 OVC110 22/17 A2983 RMK AO2 LTG DSNT S-NW RAEMM P0009 T02170167 PWINO $
KGLD 232153Z AUTO 02006KT 10SM -TSRA FEW075 SCT090 BKN110 22/17 A2983 RMK AO2 LTG DSNT SW-NW SLP071 P0004 T02220167